sensor_id;sensor_type;location;lat;lon;timestamp;temperature;humidity
16825;DHT22;8529;48.108;-1.706;2022-09-30T00:00:34;10.20;99.90
16825;DHT22;8529;48.108;-1.706;2022-09-30T00:03:01;10.20;99.90
16825;DHT22;8529;48.108;-1.706;2022-09-30T00:05:29;10.20;99.90
16825;DHT22;8529;48.108;-1.706;2022-09-30T00:07:56;10.10;99.90
16825;DHT22;8529;48.108;-1.706;2022-09-30T00:10:23;10.10;99.90
16825;DHT22;8529;48.108;-1.706;2022-09-30T00:12:51;10.10;99.90
16825;DHT22;8529;48.108;-1.706;2022-09-30T00:15:18;10.00;99.90
16825;DHT22;8529;48.108;-1.706;2022-09-30T00:17:45;10.00;99.90
16825;DHT22;8529;48.108;-1.706;2022-09-30T00:20:12;10.00;99.90
16825;DHT22;8529;48.108;-1.706;2022-09-30T00:22:40;10.00;99.90
16825;DHT22;8529;48.108;-1.706;2022-09-30T00:25:09;10.10;99.90
16825;DHT22;8529;48.108;-1.706;2022-09-30T00:27:36;10.10;99.90
16825;DHT22;8529;48.108;-1.706;2022-09-30T00:30:04;10.10;99.90
16825;DHT22;8529;48.108;-1.706;2022-09-30T00:32:31;10.20;99.90
16825;DHT22;8529;48.108;-1.706;2022-09-30T00:34:58;10.10;99.90
16825;DHT22;8529;48.108;-1.706;2022-09-30T00:37:25;10.10;99.90
16825;DHT22;8529;48.108;-1.706;2022-09-30T00:39:53;10.10;99.90
16825;DHT22;8529;48.108;-1.706;2022-09-30T00:42:20;10.10;99.90
16825;DHT22;8529;48.108;-1.706;2022-09-30T00:44:52;10.00;99.90
16825;DHT22;8529;48.108;-1.706;2022-09-30T00:47:37;9.90;99.90
16825;DHT22;8529;48.108;-1.706;2022-09-30T00:50:14;9.80;99.90
16825;DHT22;8529;48.108;-1.706;2022-09-30T00:52:44;9.80;99.90
16825;DHT22;8529;48.108;-1.706;2022-09-30T00:55:22;9.80;99.90
16825;DHT22;8529;48.108;-1.706;2022-09-30T00:57:51;9.70;99.90
16825;DHT22;8529;48.108;-1.706;2022-09-30T01:00:19;9.80;99.90
16825;DHT22;8529;48.108;-1.706;2022-09-30T01:02:46;9.70;99.90
16825;DHT22;8529;48.108;-1.706;2022-09-30T01:05:14;9.70;99.90
16825;DHT22;8529;48.108;-1.706;2022-09-30T01:07:41;9.70;99.90
16825;DHT22;8529;48.108;-1.706;2022-09-30T01:10:08;9.70;99.90
16825;DHT22;8529;48.108;-1.706;2022-09-30T01:12:38;9.70;99.90
16825;DHT22;8529;48.108;-1.706;2022-09-30T01:15:06;9.70;99.90
16825;DHT22;8529;48.108;-1.706;2022-09-30T01:17:39;9.70;99.90
16825;DHT22;8529;48.108;-1.706;2022-09-30T01:26:23;9.70;99.90
16825;DHT22;8529;48.108;-1.706;2022-09-30T01:32:05;9.60;99.90
16825;DHT22;8529;48.108;-1.706;2022-09-30T01:34:41;9.60;99.90
16825;DHT22;8529;48.108;-1.706;2022-09-30T01:37:19;9.60;99.90
16825;DHT22;8529;48.108;-1.706;2022-09-30T01:39:55;9.80;99.90
16825;DHT22;8529;48.108;-1.706;2022-09-30T01:42:30;9.90;99.90
16825;DHT22;8529;48.108;-1.706;2022-09-30T01:45:06;10.00;99.90
16825;DHT22;8529;48.108;-1.706;2022-09-30T01:47:42;10.00;99.90
16825;DHT22;8529;48.108;-1.706;2022-09-30T01:50:17;10.00;99.90
16825;DHT22;8529;48.108;-1.706;2022-09-30T01:52:51;10.00;99.90
16825;DHT22;8529;48.108;-1.706;2022-09-30T01:55:26;10.00;99.90
16825;DHT22;8529;48.108;-1.706;2022-09-30T01:57:58;9.80;99.90
16825;DHT22;8529;48.108;-1.706;2022-09-30T02:00:27;9.70;99.90
16825;DHT22;8529;48.108;-1.706;2022-09-30T02:03:00;9.60;99.90
16825;DHT22;8529;48.108;-1.706;2022-09-30T02:05:35;9.50;99.90
16825;DHT22;8529;48.108;-1.706;2022-09-30T02:08:08;9.60;99.90
16825;DHT22;8529;48.108;-1.706;2022-09-30T02:10:41;9.60;99.90
16825;DHT22;8529;48.108;-1.706;2022-09-30T02:13:22;9.70;99.90
16825;DHT22;8529;48.108;-1.706;2022-09-30T02:15:54;9.70;99.90
16825;DHT22;8529;48.108;-1.706;2022-09-30T02:18:28;9.60;99.90
16825;DHT22;8529;48.108;-1.706;2022-09-30T02:20:59;9.60;99.90
16825;DHT22;8529;48.108;-1.706;2022-09-30T02:23:29;9.50;99.90
16825;DHT22;8529;48.108;-1.706;2022-09-30T02:26:01;9.40;99.90
16825;DHT22;8529;48.108;-1.706;2022-09-30T02:28:32;9.40;99.90
16825;DHT22;8529;48.108;-1.706;2022-09-30T02:31:02;9.30;99.90
16825;DHT22;8529;48.108;-1.706;2022-09-30T02:33:34;9.30;99.90
16825;DHT22;8529;48.108;-1.706;2022-09-30T02:36:07;9.30;99.90
16825;DHT22;8529;48.108;-1.706;2022-09-30T02:38:39;9.30;99.90
16825;DHT22;8529;48.108;-1.706;2022-09-30T02:41:09;9.40;99.90
16825;DHT22;8529;48.108;-1.706;2022-09-30T02:43:37;9.50;99.90
16825;DHT22;8529;48.108;-1.706;2022-09-30T02:46:10;9.50;99.90
16825;DHT22;8529;48.108;-1.706;2022-09-30T02:48:47;9.50;99.90
16825;DHT22;8529;48.108;-1.706;2022-09-30T02:51:20;9.50;99.90
16825;DHT22;8529;48.108;-1.706;2022-09-30T02:53:55;9.50;99.90
16825;DHT22;8529;48.108;-1.706;2022-09-30T02:56:30;9.50;99.90
16825;DHT22;8529;48.108;-1.706;2022-09-30T02:59:01;9.40;99.90
16825;DHT22;8529;48.108;-1.706;2022-09-30T03:01:28;9.40;99.90
16825;DHT22;8529;48.108;-1.706;2022-09-30T03:04:00;9.30;99.90
16825;DHT22;8529;48.108;-1.706;2022-09-30T03:06:29;9.30;99.90
16825;DHT22;8529;48.108;-1.706;2022-09-30T03:08:56;9.20;99.90
16825;DHT22;8529;48.108;-1.706;2022-09-30T03:11:25;9.20;99.90
16825;DHT22;8529;48.108;-1.706;2022-09-30T03:17:28;9.20;99.90
16825;DHT22;8529;48.108;-1.706;2022-09-30T03:20:12;9.20;99.90
16825;DHT22;8529;48.108;-1.706;2022-09-30T03:23:11;9.10;99.90
16825;DHT22;8529;48.108;-1.706;2022-09-30T03:25:50;9.10;99.90
16825;DHT22;8529;48.108;-1.706;2022-09-30T03:28:25;9.10;99.90
16825;DHT22;8529;48.108;-1.706;2022-09-30T03:31:01;9.10;99.90
16825;DHT22;8529;48.108;-1.706;2022-09-30T03:33:37;9.00;99.90
16825;DHT22;8529;48.108;-1.706;2022-09-30T03:36:12;9.00;99.90
16825;DHT22;8529;48.108;-1.706;2022-09-30T03:38:46;9.00;99.90
16825;DHT22;8529;48.108;-1.706;2022-09-30T03:41:21;9.10;99.90
16825;DHT22;8529;48.108;-1.706;2022-09-30T03:43:53;9.10;99.90
16825;DHT22;8529;48.108;-1.706;2022-09-30T03:46:28;9.00;99.90
16825;DHT22;8529;48.108;-1.706;2022-09-30T03:49:00;9.00;99.90
16825;DHT22;8529;48.108;-1.706;2022-09-30T03:51:29;9.00;99.90
16825;DHT22;8529;48.108;-1.706;2022-09-30T03:53:57;9.00;99.90
16825;DHT22;8529;48.108;-1.706;2022-09-30T03:56:24;9.00;99.90
16825;DHT22;8529;48.108;-1.706;2022-09-30T03:58:53;9.00;99.90
16825;DHT22;8529;48.108;-1.706;2022-09-30T04:01:20;9.00;99.90
16825;DHT22;8529;48.108;-1.706;2022-09-30T04:03:47;8.90;99.90
16825;DHT22;8529;48.108;-1.706;2022-09-30T04:06:16;8.90;99.90
16825;DHT22;8529;48.108;-1.706;2022-09-30T04:08:45;8.90;99.90
16825;DHT22;8529;48.108;-1.706;2022-09-30T04:11:12;9.00;99.90
16825;DHT22;8529;48.108;-1.706;2022-09-30T04:13:39;9.00;99.90
16825;DHT22;8529;48.108;-1.706;2022-09-30T04:16:06;9.00;99.90
16825;DHT22;8529;48.108;-1.706;2022-09-30T04:18:34;9.00;99.90
16825;DHT22;8529;48.108;-1.706;2022-09-30T04:21:04;8.90;99.90
16825;DHT22;8529;48.108;-1.706;2022-09-30T04:23:33;8.80;99.90
16825;DHT22;8529;48.108;-1.706;2022-09-30T04:26:03;8.70;99.90
16825;DHT22;8529;48.108;-1.706;2022-09-30T04:28:30;8.70;99.90
16825;DHT22;8529;48.108;-1.706;2022-09-30T04:30:58;8.60;99.90
16825;DHT22;8529;48.108;-1.706;2022-09-30T04:33:25;8.60;99.90
16825;DHT22;8529;48.108;-1.706;2022-09-30T04:35:53;8.60;99.90
16825;DHT22;8529;48.108;-1.706;2022-09-30T04:38:20;8.60;99.90
16825;DHT22;8529;48.108;-1.706;2022-09-30T04:40:47;8.60;99.90
16825;DHT22;8529;48.108;-1.706;2022-09-30T04:43:16;8.60;99.90
16825;DHT22;8529;48.108;-1.706;2022-09-30T04:45:43;8.50;99.90
16825;DHT22;8529;48.108;-1.706;2022-09-30T04:48:11;8.50;99.90
16825;DHT22;8529;48.108;-1.706;2022-09-30T04:50:38;8.40;99.90
16825;DHT22;8529;48.108;-1.706;2022-09-30T04:53:05;8.40;99.90
16825;DHT22;8529;48.108;-1.706;2022-09-30T04:55:32;8.40;99.90
16825;DHT22;8529;48.108;-1.706;2022-09-30T04:58:00;8.40;99.90
16825;DHT22;8529;48.108;-1.706;2022-09-30T05:00:28;8.50;99.90
16825;DHT22;8529;48.108;-1.706;2022-09-30T05:02:55;8.50;99.90
16825;DHT22;8529;48.108;-1.706;2022-09-30T05:05:22;8.60;99.90
16825;DHT22;8529;48.108;-1.706;2022-09-30T05:07:49;8.60;99.90
16825;DHT22;8529;48.108;-1.706;2022-09-30T05:10:16;8.50;99.90
16825;DHT22;8529;48.108;-1.706;2022-09-30T05:12:43;8.50;99.90
16825;DHT22;8529;48.108;-1.706;2022-09-30T05:15:10;8.50;99.90
16825;DHT22;8529;48.108;-1.706;2022-09-30T05:17:39;8.40;99.90
16825;DHT22;8529;48.108;-1.706;2022-09-30T05:20:06;8.50;99.90
16825;DHT22;8529;48.108;-1.706;2022-09-30T05:22:35;8.40;99.90
16825;DHT22;8529;48.108;-1.706;2022-09-30T05:25:04;8.40;99.90
16825;DHT22;8529;48.108;-1.706;2022-09-30T05:27:31;8.40;99.90
16825;DHT22;8529;48.108;-1.706;2022-09-30T05:29:57;8.40;99.90
16825;DHT22;8529;48.108;-1.706;2022-09-30T05:32:24;8.40;99.90
16825;DHT22;8529;48.108;-1.706;2022-09-30T05:34:53;8.30;99.90
16825;DHT22;8529;48.108;-1.706;2022-09-30T05:37:20;8.40;99.90
16825;DHT22;8529;48.108;-1.706;2022-09-30T05:39:47;8.50;99.90
16825;DHT22;8529;48.108;-1.706;2022-09-30T05:42:14;8.40;99.90
16825;DHT22;8529;48.108;-1.706;2022-09-30T05:44:41;8.40;99.90
16825;DHT22;8529;48.108;-1.706;2022-09-30T05:47:08;8.40;99.90
16825;DHT22;8529;48.108;-1.706;2022-09-30T05:49:36;8.40;99.90
16825;DHT22;8529;48.108;-1.706;2022-09-30T05:52:06;8.40;99.90
16825;DHT22;8529;48.108;-1.706;2022-09-30T05:54:33;8.40;99.90
16825;DHT22;8529;48.108;-1.706;2022-09-30T05:57:00;8.40;99.90
16825;DHT22;8529;48.108;-1.706;2022-09-30T05:59:27;8.40;99.90
16825;DHT22;8529;48.108;-1.706;2022-09-30T06:01:54;8.60;99.90
16825;DHT22;8529;48.108;-1.706;2022-09-30T06:04:21;8.70;99.90
16825;DHT22;8529;48.108;-1.706;2022-09-30T06:06:48;8.70;99.90
16825;DHT22;8529;48.108;-1.706;2022-09-30T06:09:16;8.70;99.90
16825;DHT22;8529;48.108;-1.706;2022-09-30T06:11:43;8.70;99.90
16825;DHT22;8529;48.108;-1.706;2022-09-30T06:14:10;8.70;99.90
16825;DHT22;8529;48.108;-1.706;2022-09-30T06:16:37;8.70;99.90
16825;DHT22;8529;48.108;-1.706;2022-09-30T06:19:04;8.70;99.90
16825;DHT22;8529;48.108;-1.706;2022-09-30T06:21:31;8.70;99.90
16825;DHT22;8529;48.108;-1.706;2022-09-30T06:23:59;8.80;99.90
16825;DHT22;8529;48.108;-1.706;2022-09-30T06:26:27;8.80;99.90
16825;DHT22;8529;48.108;-1.706;2022-09-30T06:28:54;8.80;99.90
16825;DHT22;8529;48.108;-1.706;2022-09-30T06:31:21;8.70;99.90
16825;DHT22;8529;48.108;-1.706;2022-09-30T06:33:51;8.60;99.90
16825;DHT22;8529;48.108;-1.706;2022-09-30T06:36:18;8.60;99.90
16825;DHT22;8529;48.108;-1.706;2022-09-30T06:38:47;8.60;99.90
16825;DHT22;8529;48.108;-1.706;2022-09-30T06:41:15;8.60;99.90
16825;DHT22;8529;48.108;-1.706;2022-09-30T06:43:44;8.50;99.90
16825;DHT22;8529;48.108;-1.706;2022-09-30T06:46:11;8.50;99.90
16825;DHT22;8529;48.108;-1.706;2022-09-30T06:48:38;8.60;99.90
16825;DHT22;8529;48.108;-1.706;2022-09-30T06:51:05;8.60;99.90
16825;DHT22;8529;48.108;-1.706;2022-09-30T06:53:34;8.70;99.90
16825;DHT22;8529;48.108;-1.706;2022-09-30T06:56:02;8.70;99.90
16825;DHT22;8529;48.108;-1.706;2022-09-30T06:58:29;8.80;99.90
16825;DHT22;8529;48.108;-1.706;2022-09-30T07:00:59;8.80;99.90
16825;DHT22;8529;48.108;-1.706;2022-09-30T07:03:28;8.80;99.90
16825;DHT22;8529;48.108;-1.706;2022-09-30T07:05:57;8.90;99.90
16825;DHT22;8529;48.108;-1.706;2022-09-30T07:08:25;8.90;99.90
16825;DHT22;8529;48.108;-1.706;2022-09-30T07:10:54;9.00;99.90
16825;DHT22;8529;48.108;-1.706;2022-09-30T07:13:21;9.10;99.90
16825;DHT22;8529;48.108;-1.706;2022-09-30T07:15:48;9.10;99.90
16825;DHT22;8529;48.108;-1.706;2022-09-30T07:18:20;9.20;99.90
16825;DHT22;8529;48.108;-1.706;2022-09-30T07:20:48;9.30;99.90
16825;DHT22;8529;48.108;-1.706;2022-09-30T07:23:15;9.40;99.90
16825;DHT22;8529;48.108;-1.706;2022-09-30T07:25:49;9.50;99.90
16825;DHT22;8529;48.108;-1.706;2022-09-30T07:28:16;9.50;99.90
16825;DHT22;8529;48.108;-1.706;2022-09-30T07:30:43;9.60;99.90
16825;DHT22;8529;48.108;-1.706;2022-09-30T07:33:10;9.60;99.90
16825;DHT22;8529;48.108;-1.706;2022-09-30T07:35:49;9.70;99.90
16825;DHT22;8529;48.108;-1.706;2022-09-30T07:38:17;9.80;99.90
16825;DHT22;8529;48.108;-1.706;2022-09-30T07:40:52;9.90;99.90
16825;DHT22;8529;48.108;-1.706;2022-09-30T07:43:19;9.90;99.90
16825;DHT22;8529;48.108;-1.706;2022-09-30T07:45:47;9.90;99.90
16825;DHT22;8529;48.108;-1.706;2022-09-30T07:48:14;10.00;99.90
16825;DHT22;8529;48.108;-1.706;2022-09-30T07:50:56;10.10;99.90
16825;DHT22;8529;48.108;-1.706;2022-09-30T07:53:23;10.20;99.90
16825;DHT22;8529;48.108;-1.706;2022-09-30T07:55:50;10.20;99.90
16825;DHT22;8529;48.108;-1.706;2022-09-30T07:58:17;10.30;99.90
16825;DHT22;8529;48.108;-1.706;2022-09-30T08:00:46;10.40;99.90
16825;DHT22;8529;48.108;-1.706;2022-09-30T08:03:16;10.40;99.90
16825;DHT22;8529;48.108;-1.706;2022-09-30T08:05:43;10.40;99.90
16825;DHT22;8529;48.108;-1.706;2022-09-30T08:08:12;10.50;99.90
16825;DHT22;8529;48.108;-1.706;2022-09-30T08:10:39;10.60;99.90
16825;DHT22;8529;48.108;-1.706;2022-09-30T08:13:07;10.60;99.90
16825;DHT22;8529;48.108;-1.706;2022-09-30T08:15:34;10.70;99.90
16825;DHT22;8529;48.108;-1.706;2022-09-30T08:18:01;10.80;99.90
16825;DHT22;8529;48.108;-1.706;2022-09-30T08:20:28;10.80;99.90
16825;DHT22;8529;48.108;-1.706;2022-09-30T08:22:56;10.80;99.90
16825;DHT22;8529;48.108;-1.706;2022-09-30T08:25:25;10.90;99.90
16825;DHT22;8529;48.108;-1.706;2022-09-30T08:27:52;10.90;99.90
16825;DHT22;8529;48.108;-1.706;2022-09-30T08:30:20;10.90;99.90
16825;DHT22;8529;48.108;-1.706;2022-09-30T08:32:47;11.00;99.90
16825;DHT22;8529;48.108;-1.706;2022-09-30T08:35:14;11.10;99.90
16825;DHT22;8529;48.108;-1.706;2022-09-30T08:37:40;11.10;99.90
16825;DHT22;8529;48.108;-1.706;2022-09-30T08:40:16;11.20;99.90
16825;DHT22;8529;48.108;-1.706;2022-09-30T08:42:59;11.20;99.90
16825;DHT22;8529;48.108;-1.706;2022-09-30T08:45:37;11.30;99.90
16825;DHT22;8529;48.108;-1.706;2022-09-30T08:48:17;11.40;99.90
16825;DHT22;8529;48.108;-1.706;2022-09-30T08:50:52;11.50;99.90
16825;DHT22;8529;48.108;-1.706;2022-09-30T08:53:24;11.50;99.90
16825;DHT22;8529;48.108;-1.706;2022-09-30T08:55:53;11.60;99.90
16825;DHT22;8529;48.108;-1.706;2022-09-30T08:58:27;11.60;99.90
16825;DHT22;8529;48.108;-1.706;2022-09-30T09:00:58;11.70;99.90
16825;DHT22;8529;48.108;-1.706;2022-09-30T09:03:28;11.70;99.90
16825;DHT22;8529;48.108;-1.706;2022-09-30T09:06:10;11.80;99.90
16825;DHT22;8529;48.108;-1.706;2022-09-30T09:08:52;11.90;99.90
16825;DHT22;8529;48.108;-1.706;2022-09-30T09:11:34;11.90;99.90
16825;DHT22;8529;48.108;-1.706;2022-09-30T09:14:16;12.10;99.90
16825;DHT22;8529;48.108;-1.706;2022-09-30T09:16:54;12.20;99.90
16825;DHT22;8529;48.108;-1.706;2022-09-30T09:19:25;12.30;99.90
16825;DHT22;8529;48.108;-1.706;2022-09-30T09:21:56;12.30;99.90
16825;DHT22;8529;48.108;-1.706;2022-09-30T09:24:26;12.40;99.90
16825;DHT22;8529;48.108;-1.706;2022-09-30T09:26:57;12.40;99.90
16825;DHT22;8529;48.108;-1.706;2022-09-30T09:29:34;12.50;99.90
16825;DHT22;8529;48.108;-1.706;2022-09-30T09:32:09;12.50;99.90
16825;DHT22;8529;48.108;-1.706;2022-09-30T09:34:38;12.50;99.90
16825;DHT22;8529;48.108;-1.706;2022-09-30T09:37:12;12.60;99.90
16825;DHT22;8529;48.108;-1.706;2022-09-30T09:40:02;12.60;99.90
16825;DHT22;8529;48.108;-1.706;2022-09-30T09:42:48;12.60;99.90
16825;DHT22;8529;48.108;-1.706;2022-09-30T09:45:26;12.70;99.90
16825;DHT22;8529;48.108;-1.706;2022-09-30T09:47:53;12.70;99.90
16825;DHT22;8529;48.108;-1.706;2022-09-30T09:50:26;12.80;99.90
16825;DHT22;8529;48.108;-1.706;2022-09-30T09:56:15;13.00;99.90
16825;DHT22;8529;48.108;-1.706;2022-09-30T09:59:03;13.10;99.90
16825;DHT22;8529;48.108;-1.706;2022-09-30T10:01:32;13.10;99.90
16825;DHT22;8529;48.108;-1.706;2022-09-30T10:04:08;13.10;99.90
16825;DHT22;8529;48.108;-1.706;2022-09-30T10:06:45;13.10;99.90
16825;DHT22;8529;48.108;-1.706;2022-09-30T10:09:27;13.10;99.90
16825;DHT22;8529;48.108;-1.706;2022-09-30T10:12:27;13.20;99.90
16825;DHT22;8529;48.108;-1.706;2022-09-30T10:14:59;13.20;99.90
16825;DHT22;8529;48.108;-1.706;2022-09-30T10:17:30;13.30;99.90
16825;DHT22;8529;48.108;-1.706;2022-09-30T10:20:00;13.40;99.90
16825;DHT22;8529;48.108;-1.706;2022-09-30T10:22:31;13.50;99.90
16825;DHT22;8529;48.108;-1.706;2022-09-30T10:25:15;13.60;99.90
16825;DHT22;8529;48.108;-1.706;2022-09-30T10:27:48;13.60;99.90
16825;DHT22;8529;48.108;-1.706;2022-09-30T10:30:40;13.70;99.90
16825;DHT22;8529;48.108;-1.706;2022-09-30T10:33:18;13.70;99.90
16825;DHT22;8529;48.108;-1.706;2022-09-30T10:36:08;13.80;99.90
16825;DHT22;8529;48.108;-1.706;2022-09-30T10:38:43;13.90;99.90
16825;DHT22;8529;48.108;-1.706;2022-09-30T10:41:11;13.90;99.90
16825;DHT22;8529;48.108;-1.706;2022-09-30T10:43:41;13.90;99.90
16825;DHT22;8529;48.108;-1.706;2022-09-30T10:46:09;14.00;99.90
16825;DHT22;8529;48.108;-1.706;2022-09-30T10:48:39;13.90;99.90
16825;DHT22;8529;48.108;-1.706;2022-09-30T10:51:21;13.90;99.90
16825;DHT22;8529;48.108;-1.706;2022-09-30T10:53:48;13.90;99.90
16825;DHT22;8529;48.108;-1.706;2022-09-30T10:56:32;14.00;99.90
16825;DHT22;8529;48.108;-1.706;2022-09-30T10:59:00;14.00;99.90
16825;DHT22;8529;48.108;-1.706;2022-09-30T11:01:31;14.00;99.90
16825;DHT22;8529;48.108;-1.706;2022-09-30T11:04:06;14.00;99.90
16825;DHT22;8529;48.108;-1.706;2022-09-30T11:06:38;14.00;99.90
16825;DHT22;8529;48.108;-1.706;2022-09-30T11:09:11;14.00;99.90
16825;DHT22;8529;48.108;-1.706;2022-09-30T11:11:44;14.10;99.90
16825;DHT22;8529;48.108;-1.706;2022-09-30T11:14:25;14.10;99.90
16825;DHT22;8529;48.108;-1.706;2022-09-30T11:17:03;14.10;99.90
16825;DHT22;8529;48.108;-1.706;2022-09-30T11:19:38;14.10;99.90
16825;DHT22;8529;48.108;-1.706;2022-09-30T11:22:24;14.20;99.90
16825;DHT22;8529;48.108;-1.706;2022-09-30T11:24:54;14.20;99.90
16825;DHT22;8529;48.108;-1.706;2022-09-30T11:27:36;14.20;99.90
16825;DHT22;8529;48.108;-1.706;2022-09-30T11:30:09;14.20;99.90
16825;DHT22;8529;48.108;-1.706;2022-09-30T11:32:54;14.20;99.90
16825;DHT22;8529;48.108;-1.706;2022-09-30T11:35:37;14.20;99.90
16825;DHT22;8529;48.108;-1.706;2022-09-30T11:41:02;14.30;99.90
16825;DHT22;8529;48.108;-1.706;2022-09-30T11:43:38;14.30;99.90
16825;DHT22;8529;48.108;-1.706;2022-09-30T11:46:33;14.30;99.90
16825;DHT22;8529;48.108;-1.706;2022-09-30T11:52:40;14.40;99.90
16825;DHT22;8529;48.108;-1.706;2022-09-30T11:55:56;14.40;99.90
16825;DHT22;8529;48.108;-1.706;2022-09-30T11:58:32;14.50;99.90
16825;DHT22;8529;48.108;-1.706;2022-09-30T12:04:17;14.50;99.90
16825;DHT22;8529;48.108;-1.706;2022-09-30T12:10:30;14.60;99.90
16825;DHT22;8529;48.108;-1.706;2022-09-30T12:16:23;14.90;99.90
16825;DHT22;8529;48.108;-1.706;2022-09-30T12:18:52;14.90;99.90
16825;DHT22;8529;48.108;-1.706;2022-09-30T12:21:23;15.00;99.90
16825;DHT22;8529;48.108;-1.706;2022-09-30T12:23:58;15.00;99.90
16825;DHT22;8529;48.108;-1.706;2022-09-30T12:26:27;15.00;99.90
16825;DHT22;8529;48.108;-1.706;2022-09-30T12:28:58;15.00;99.90
16825;DHT22;8529;48.108;-1.706;2022-09-30T12:32:13;14.90;99.90
16825;DHT22;8529;48.108;-1.706;2022-09-30T12:34:55;14.90;99.90
16825;DHT22;8529;48.108;-1.706;2022-09-30T12:37:45;14.90;99.90
16825;DHT22;8529;48.108;-1.706;2022-09-30T12:40:45;14.90;99.90
16825;DHT22;8529;48.108;-1.706;2022-09-30T12:46:30;15.20;99.90
16825;DHT22;8529;48.108;-1.706;2022-09-30T12:49:10;15.20;99.90
16825;DHT22;8529;48.108;-1.706;2022-09-30T12:51:43;15.20;99.90
16825;DHT22;8529;48.108;-1.706;2022-09-30T12:54:12;15.20;99.90
16825;DHT22;8529;48.108;-1.706;2022-09-30T12:56:41;15.20;99.90
16825;DHT22;8529;48.108;-1.706;2022-09-30T12:59:12;15.10;99.90
16825;DHT22;8529;48.108;-1.706;2022-09-30T13:01:40;15.10;99.90
16825;DHT22;8529;48.108;-1.706;2022-09-30T13:04:29;15.10;99.90
16825;DHT22;8529;48.108;-1.706;2022-09-30T13:07:18;15.10;99.90
16825;DHT22;8529;48.108;-1.706;2022-09-30T13:10:24;15.10;99.90
16825;DHT22;8529;48.108;-1.706;2022-09-30T13:13:15;15.20;99.90
16825;DHT22;8529;48.108;-1.706;2022-09-30T13:15:48;15.20;99.90
16825;DHT22;8529;48.108;-1.706;2022-09-30T13:21:21;15.10;99.90
16825;DHT22;8529;48.108;-1.706;2022-09-30T13:23:50;15.10;99.90
16825;DHT22;8529;48.108;-1.706;2022-09-30T13:26:36;15.10;99.90
16825;DHT22;8529;48.108;-1.706;2022-09-30T13:29:27;15.10;99.90
16825;DHT22;8529;48.108;-1.706;2022-09-30T13:32:05;15.10;99.90
16825;DHT22;8529;48.108;-1.706;2022-09-30T13:34:47;15.10;99.90
16825;DHT22;8529;48.108;-1.706;2022-09-30T13:37:45;15.20;99.90
16825;DHT22;8529;48.108;-1.706;2022-09-30T13:40:32;15.20;99.90
16825;DHT22;8529;48.108;-1.706;2022-09-30T13:42:59;15.20;99.90
16825;DHT22;8529;48.108;-1.706;2022-09-30T13:45:31;15.20;99.90
16825;DHT22;8529;48.108;-1.706;2022-09-30T13:48:06;15.20;99.90
16825;DHT22;8529;48.108;-1.706;2022-09-30T13:50:41;15.20;99.90
16825;DHT22;8529;48.108;-1.706;2022-09-30T13:53:21;15.20;99.90
16825;DHT22;8529;48.108;-1.706;2022-09-30T13:55:52;15.20;99.90
16825;DHT22;8529;48.108;-1.706;2022-09-30T13:58:56;15.20;99.90
16825;DHT22;8529;48.108;-1.706;2022-09-30T14:01:39;15.30;99.90
16825;DHT22;8529;48.108;-1.706;2022-09-30T14:04:38;15.30;99.90
16825;DHT22;8529;48.108;-1.706;2022-09-30T14:07:16;15.20;99.90
16825;DHT22;8529;48.108;-1.706;2022-09-30T14:10:12;15.20;99.90
16825;DHT22;8529;48.108;-1.706;2022-09-30T14:12:52;15.20;99.90
16825;DHT22;8529;48.108;-1.706;2022-09-30T14:15:54;15.20;99.90
16825;DHT22;8529;48.108;-1.706;2022-09-30T14:21:38;15.10;99.90
16825;DHT22;8529;48.108;-1.706;2022-09-30T14:24:12;15.10;99.90
16825;DHT22;8529;48.108;-1.706;2022-09-30T14:26:53;15.20;99.90
16825;DHT22;8529;48.108;-1.706;2022-09-30T14:29:32;15.20;99.90
16825;DHT22;8529;48.108;-1.706;2022-09-30T14:32:10;15.20;99.90
16825;DHT22;8529;48.108;-1.706;2022-09-30T14:34:37;15.20;99.90
16825;DHT22;8529;48.108;-1.706;2022-09-30T14:37:12;15.20;99.90
16825;DHT22;8529;48.108;-1.706;2022-09-30T14:39:41;15.20;99.90
16825;DHT22;8529;48.108;-1.706;2022-09-30T14:42:10;15.20;99.90
16825;DHT22;8529;48.108;-1.706;2022-09-30T14:44:39;15.20;99.90
16825;DHT22;8529;48.108;-1.706;2022-09-30T14:47:06;15.20;99.90
16825;DHT22;8529;48.108;-1.706;2022-09-30T14:49:34;15.20;99.90
16825;DHT22;8529;48.108;-1.706;2022-09-30T14:52:03;15.10;99.90
16825;DHT22;8529;48.108;-1.706;2022-09-30T14:54:32;15.10;99.90
16825;DHT22;8529;48.108;-1.706;2022-09-30T14:57:00;15.10;99.90
16825;DHT22;8529;48.108;-1.706;2022-09-30T14:59:30;15.10;99.90
16825;DHT22;8529;48.108;-1.706;2022-09-30T15:01:58;15.10;99.90
16825;DHT22;8529;48.108;-1.706;2022-09-30T15:04:28;15.10;99.90
16825;DHT22;8529;48.108;-1.706;2022-09-30T15:06:57;15.10;99.90
16825;DHT22;8529;48.108;-1.706;2022-09-30T15:09:28;15.10;99.90
16825;DHT22;8529;48.108;-1.706;2022-09-30T15:12:03;15.10;99.90
16825;DHT22;8529;48.108;-1.706;2022-09-30T15:14:31;15.10;99.90
16825;DHT22;8529;48.108;-1.706;2022-09-30T15:16:59;15.10;99.90
16825;DHT22;8529;48.108;-1.706;2022-09-30T15:19:27;15.10;99.90
16825;DHT22;8529;48.108;-1.706;2022-09-30T15:21:56;15.10;99.90
16825;DHT22;8529;48.108;-1.706;2022-09-30T15:24:27;15.10;99.90
16825;DHT22;8529;48.108;-1.706;2022-09-30T15:26:56;15.10;99.90
16825;DHT22;8529;48.108;-1.706;2022-09-30T15:29:25;15.10;99.90
16825;DHT22;8529;48.108;-1.706;2022-09-30T15:31:59;15.10;99.90
16825;DHT22;8529;48.108;-1.706;2022-09-30T15:34:28;15.10;99.90
16825;DHT22;8529;48.108;-1.706;2022-09-30T15:36:57;15.20;99.90
16825;DHT22;8529;48.108;-1.706;2022-09-30T15:39:30;15.20;99.90
16825;DHT22;8529;48.108;-1.706;2022-09-30T15:42:11;15.20;99.90
16825;DHT22;8529;48.108;-1.706;2022-09-30T15:44:40;15.20;99.90
16825;DHT22;8529;48.108;-1.706;2022-09-30T15:47:09;15.20;99.90
16825;DHT22;8529;48.108;-1.706;2022-09-30T15:49:45;15.20;99.90
16825;DHT22;8529;48.108;-1.706;2022-09-30T15:52:30;15.20;99.90
16825;DHT22;8529;48.108;-1.706;2022-09-30T15:55:35;15.20;99.90
16825;DHT22;8529;48.108;-1.706;2022-09-30T15:58:03;15.20;99.90
16825;DHT22;8529;48.108;-1.706;2022-09-30T16:00:37;15.20;99.90
16825;DHT22;8529;48.108;-1.706;2022-09-30T16:03:24;15.20;99.90
16825;DHT22;8529;48.108;-1.706;2022-09-30T16:05:52;15.10;99.90
16825;DHT22;8529;48.108;-1.706;2022-09-30T16:08:21;15.10;99.90
16825;DHT22;8529;48.108;-1.706;2022-09-30T16:10:51;15.10;99.90
16825;DHT22;8529;48.108;-1.706;2022-09-30T16:13:20;15.10;99.90
16825;DHT22;8529;48.108;-1.706;2022-09-30T16:15:51;15.10;99.90
16825;DHT22;8529;48.108;-1.706;2022-09-30T16:18:21;15.10;99.90
16825;DHT22;8529;48.108;-1.706;2022-09-30T16:20:56;15.10;99.90
16825;DHT22;8529;48.108;-1.706;2022-09-30T16:23:28;15.00;99.90
16825;DHT22;8529;48.108;-1.706;2022-09-30T16:26:15;15.00;99.90
16825;DHT22;8529;48.108;-1.706;2022-09-30T16:28:43;15.00;99.90
16825;DHT22;8529;48.108;-1.706;2022-09-30T16:31:12;15.00;99.90
16825;DHT22;8529;48.108;-1.706;2022-09-30T16:33:42;15.00;99.90
16825;DHT22;8529;48.108;-1.706;2022-09-30T16:36:10;14.90;99.90
16825;DHT22;8529;48.108;-1.706;2022-09-30T16:38:39;14.90;99.90
16825;DHT22;8529;48.108;-1.706;2022-09-30T16:41:10;14.90;99.90
16825;DHT22;8529;48.108;-1.706;2022-09-30T16:43:37;14.90;99.90
16825;DHT22;8529;48.108;-1.706;2022-09-30T16:46:04;14.90;99.90
16825;DHT22;8529;48.108;-1.706;2022-09-30T16:48:33;14.90;99.90
16825;DHT22;8529;48.108;-1.706;2022-09-30T16:51:02;14.90;99.90
16825;DHT22;8529;48.108;-1.706;2022-09-30T16:53:30;14.80;99.90